Hlavní strana
METAR-TAF:

METAR-TAF

Letiště :

Győr, Maďarsko

zeměpisná šířka: 47-37-28N, zeměpisná délka: 017-48-49E, výška: 129 m

Aktuální stav počasí

Zpráva byla vytvořena před 37 minutami, v 03:45 UTC
Bezvětří
Teplota 3°C
Vlhkost vzduchu 81%
Tlak 1023 hPa
Viditelnost 10 km a více
Žádná oblačnost pod 1500 m, nevyskytují se cumulonimby.

METAR: LHPR 210345Z AUTO 00000KT CAVOK 03/00 Q1023

Čas: 06:22 (04:22 UTC)

Předpověď počasí

Zpráva byla vytvořena před 11 hodinami a 7 minutami, v 17:15 UTC
Předpověď platná od 20 v 18 UTC do 21 v 03 UTC
Severozápadní vítr 4 kt
Viditelnost 10 km a více
Žádná oblačnost pod 1500 m, nevyskytují se cumulonimby.
Změna
od 20 v 18 UTC do 20 v 21 UTC
Západojihozápadní vítr 6 kt

TAF: LHPR 201715Z 2018/2103 31004KT CAVOK BECMG 2018/2021 25006KT

Stav a předpovědi počasí z více než 4 000 letišť (zprávy METAR a TAF).

Červené a žluté tečky na mapě představují dostupné meteorologické stanice.

Když kurzor umístíte na tečku, zobrazí se název stanice.

Pak kliknutím zobrazíte stav a předpověď počasí.

Chcete-li změnit mapu, kliknutím na zelené tlačítko se znaménkem +mapu přiblížíte, kliknutím na zelené tlačítko se znaménkem – mapu oddálíte a kliknutím na zelené šipky přejdete na sousední mapy.


METAR-TAF: